Time;durP1;ratioP1;P1;durP2;ratioP2;P2;SDS_P1;SDS_P2;PMS_P1;PMS_P2;Temp;Humidity;BMP_temperature;BMP_pressure;BME280_temperature;BME280_humidity;BME280_pressure;Samples;Min_cycle;Max_cycle;Signal;HPM_P1;HPM_P2
2022/12/05 00:01:30;;;;;;;38.65;23.15;;;;;;;2.21;97.48;101574.59;5065662;28;20054;-72
2022/12/05 00:04:00;;;;;;;43.55;24.35;;;;;;;2.21;97.30;101574.59;5068461;28;20078;-72
2022/12/05 00:06:26;;;;;;;;;;;;;;;2.28;96.73;101575.28;5068790;28;20040;-73
2022/12/05 00:08:52;;;;;;;39.35;20.15;;;;;;;2.26;97.04;101574.47;5071950;28;20355;-72
2022/12/05 00:11:21;;;;;;;41.53;24.95;;;;;;;2.28;97.22;101583.25;5070163;28;20028;-72
2022/12/05 00:13:48;;;;;;;45.10;25.52;;;;;;;2.27;97.60;101584.19;5071354;28;20383;-72
2022/12/05 00:16:16;;;;;;;40.95;22.90;;;;;;;2.25;97.43;101580.69;5070154;28;20178;-73
2022/12/05 00:18:42;;;;;;;44.78;25.38;;;;;;;2.26;97.61;101585.09;5070416;28;20028;-72
2022/12/05 00:21:13;;;;;;;42.38;26.05;;;;;;;2.26;97.63;101585.94;5066289;28;20028;-73
2022/12/05 00:23:38;;;;;;;42.53;25.80;;;;;;;2.25;98.00;101586.84;5064947;28;20408;-73
2022/12/05 00:26:04;;;;;;;46.80;24.67;;;;;;;2.25;97.98;101591.28;5070812;28;20103;-72
2022/12/05 00:28:31;;;;;;;42.95;24.65;;;;;;;2.25;98.08;101586.00;5070412;28;20024;-72
2022/12/05 00:31:01;;;;;;;45.47;25.77;;;;;;;2.25;98.20;101581.53;5069250;28;20032;-72
2022/12/05 00:33:26;;;;;;;44.22;26.92;;;;;;;2.30;98.14;101577.91;5065748;28;20479;-72
2022/12/05 00:35:51;;;;;;;45.30;24.88;;;;;;;2.27;98.40;101577.09;5069475;28;20127;-72
2022/12/05 00:38:16;;;;;;;43.55;24.40;;;;;;;2.29;98.18;101577.03;5050682;28;20028;-72
2022/12/05 00:40:42;;;;;;;39.53;25.10;;;;;;;2.32;98.06;101565.50;5064765;28;20028;-72
2022/12/05 00:43:07;;;;;;;43.63;24.80;;;;;;;2.34;98.46;101571.59;5064004;28;20021;-72
2022/12/05 00:45:32;;;;;;;42.60;26.20;;;;;;;2.33;98.13;101572.50;5070707;28;20016;-72
2022/12/05 00:47:58;;;;;;;45.47;26.40;;;;;;;2.34;98.23;101564.50;5069027;28;20055;-72
2022/12/05 00:50:23;;;;;;;40.72;24.80;;;;;;;2.34;98.38;101572.47;5069579;28;20059;-72
2022/12/05 00:52:48;;;;;;;46.70;24.70;;;;;;;2.35;98.18;101573.34;5070772;28;20395;-72
2022/12/05 00:55:13;;;;;;;47.58;26.65;;;;;;;2.34;98.53;101569.81;5069551;28;20075;-72
2022/12/05 00:57:39;;;;;;;39.50;22.90;;;;;;;2.33;98.04;101568.09;5069838;28;20224;-72
2022/12/05 01:00:05;;;;;;;45.03;25.10;;;;;;;2.33;98.43;101573.41;5071226;28;20442;-72
2022/12/05 01:02:31;;;;;;;43.38;24.58;;;;;;;2.34;98.38;101561.84;5072446;28;20062;-73
2022/12/05 01:04:56;;;;;;;44.90;25.67;;;;;;;2.36;98.46;101568.00;5073039;28;20021;-72
2022/12/05 01:07:21;;;;;;;46.08;27.85;;;;;;;2.36;98.64;101568.00;5074599;28;20099;-72
2022/12/05 01:09:46;;;;;;;43.10;26.27;;;;;;;2.38;98.82;101567.97;5074910;28;20024;-73
2022/12/05 01:12:12;;;;;;;44.63;26.95;;;;;;;2.39;98.67;101575.88;5072668;28;20107;-72
2022/12/05 01:14:37;;;;;;;48.00;25.25;;;;;;;2.38;98.16;101582.09;5059952;28;20028;-72
2022/12/05 01:17:02;;;;;;;44.88;27.17;;;;;;;2.41;98.27;101576.69;5071854;28;20024;-72
2022/12/05 01:19:31;;;;;;;42.80;25.40;;;;;;;2.44;98.44;101576.59;5073143;28;20108;-72
2022/12/05 01:21:57;;;;;;;43.53;25.52;;;;;;;2.45;98.03;101583.66;5073122;28;20024;-72
2022/12/05 01:24:24;;;;;;;48.67;27.42;;;;;;;2.45;98.29;101588.97;5073058;28;20082;-72
2022/12/05 01:26:49;;;;;;;44.67;25.42;;;;;;;2.45;98.24;101583.66;5072828;28;20028;-72
2022/12/05 01:29:17;;;;;;;46.40;27.63;;;;;;;2.47;98.44;101590.72;5072213;28;20380;-73
2022/12/05 01:31:43;;;;;;;42.35;24.85;;;;;;;2.47;98.03;101590.72;5067828;28;20032;-72
2022/12/05 01:34:13;;;;;;;43.22;24.15;;;;;;;2.47;98.29;101588.06;5063684;28;20357;-72
2022/12/05 01:36:39;;;;;;;43.13;27.67;;;;;;;2.47;98.32;101591.59;5071893;28;20075;-72
2022/12/05 01:39:06;;;;;;;41.78;25.35;;;;;;;2.44;98.46;101589.88;5071451;28;20056;-72
2022/12/05 01:41:34;;;;;;;43.70;26.23;;;;;;;2.47;98.97;101596.88;5073810;28;20109;-72
2022/12/05 01:44:06;;;;;;;42.88;26.63;;;;;;;2.47;98.35;101601.34;5071562;28;20032;-73
2022/12/05 01:46:37;;;;;;;43.03;26.90;;;;;;;2.49;98.64;101599.50;5064449;28;20021;-72
2022/12/05 01:49:07;;;;;;;44.72;26.77;;;;;;;2.49;98.90;101604.81;5073801;28;20117;-72
2022/12/05 01:51:34;;;;;;;43.53;26.40;;;;;;;2.50;98.56;101609.22;5071746;28;20122;-73
2022/12/05 01:54:01;;;;;;;40.45;24.42;;;;;;;2.52;98.61;101604.72;5073420;28;20040;-72
2022/12/05 01:56:28;;;;;;;43.78;25.52;;;;;;;2.50;98.34;101611.84;5072069;28;20048;-73
2022/12/05 01:58:55;;;;;;;42.83;25.45;;;;;;;2.50;98.41;101612.72;5071819;28;20102;-73
2022/12/05 02:01:20;;;;;;;50.05;27.52;;;;;;;2.51;98.81;101608.31;5075279;28;20092;-70
2022/12/05 02:03:49;;;;;;;42.88;25.30;;;;;;;2.54;98.74;101614.38;5081885;28;20036;-70
2022/12/05 02:06:14;;;;;;;44.97;26.15;;;;;;;2.56;98.62;101611.69;5085661;28;20021;-70
2022/12/05 02:08:40;;;;;;;41.88;26.38;;;;;;;2.60;98.22;101613.34;5090650;28;20039;-70
2022/12/05 02:11:07;;;;;;;42.85;24.75;;;;;;;2.60;98.39;101610.69;5090175;28;20028;-71
2022/12/05 02:13:50;;;;;;;44.55;25.00;;;;;;;2.61;98.52;101610.66;5092323;28;20043;-70
2022/12/05 02:16:40;;;;;;;44.08;25.38;;;;;;;2.63;98.08;101615.91;5091866;28;20016;-71
2022/12/05 02:19:14;;;;;;;;;;;;;;;2.66;97.53;101613.16;5091232;28;20034;-70
2022/12/05 02:22:08;;;;;;;43.13;24.23;;;;;;;2.61;98.12;101607.13;5079133;28;19919;-70
2022/12/05 02:25:11;;;;;;;46.38;25.40;;;;;;;2.62;98.32;101607.09;5078976;28;20072;-71
2022/12/05 02:28:09;;;;;;;41.50;24.45;;;;;;;2.62;98.43;101604.44;5089167;28;20043;-70
2022/12/05 02:30:56;;;;;;;43.88;26.20;;;;;;;2.64;98.58;101604.41;5092244;28;20034;-70
2022/12/05 02:33:33;;;;;;;45.67;25.73;;;;;;;2.62;98.42;101600.88;5085986;28;20050;-70
2022/12/05 02:36:31;;;;;;;40.97;24.13;;;;;;;2.63;98.84;101605.28;5089115;28;20519;-71
2022/12/05 02:39:04;;;;;;;43.00;25.98;;;;;;;2.64;98.52;101599.09;5078116;28;20033;-70
2022/12/05 02:41:35;;;;;;;44.95;25.55;;;;;;;2.61;98.56;101599.16;5083663;28;20028;-71
2022/12/05 02:44:06;;;;;;;47.72;25.85;;;;;;;2.61;98.86;101601.81;5075315;28;20058;-71
2022/12/05 02:46:35;;;;;;;47.30;25.42;;;;;;;2.60;98.92;101598.28;5085008;28;20028;-71
2022/12/05 02:49:04;;;;;;;42.17;25.10;;;;;;;2.60;99.19;101603.59;5081137;28;20036;-70
2022/12/05 02:51:38;;;;;;;41.97;26.13;;;;;;;2.61;99.46;101600.03;5086249;28;20079;-70
2022/12/05 02:54:08;;;;;;;43.72;25.85;;;;;;;2.58;99.29;101594.81;5090364;28;20500;-70
2022/12/05 02:56:35;;;;;;;43.53;25.50;;;;;;;2.55;99.51;101602.00;5088896;28;20050;-70
2022/12/05 02:59:01;;;;;;;41.83;25.98;;;;;;;2.54;99.52;101598.47;5089861;28;20029;-71
2022/12/05 03:01:30;;;;;;;39.65;24.33;;;;;;;2.53;100.00;101607.31;5090141;28;20024;-70
2022/12/05 03:03:58;;;;;;;42.88;26.02;;;;;;;2.54;100.00;101616.19;5084362;28;20035;-70
2022/12/05 03:06:31;;;;;;;43.17;25.10;;;;;;;2.55;100.00;101609.97;5090185;28;20040;-70
2022/12/05 03:09:15;;;;;;;42.85;24.67;;;;;;;2.57;99.99;101605.47;5091441;28;20032;-70
2022/12/05 03:11:52;;;;;;;42.65;26.38;;;;;;;2.57;100.00;101611.63;5089587;28;20028;-71
2022/12/05 03:14:24;;;;;;;41.53;26.30;;;;;;;2.58;100.00;101607.22;5078567;28;20032;-71
2022/12/05 03:16:53;;;;;;;51.30;24.88;;;;;;;2.56;100.00;101606.38;5087903;28;20044;-70
2022/12/05 03:19:31;;;;;;;44.00;25.60;;;;;;;2.56;100.00;101603.72;5090846;28;20035;-71
2022/12/05 03:22:31;;;;;;;45.72;25.27;;;;;;;2.58;100.00;101604.56;5090540;28;20054;-70
2022/12/05 03:24:58;;;;;;;42.58;25.65;;;;;;;2.57;100.00;101613.44;5056820;28;20044;-70
2022/12/05 03:27:49;;;;;;;45.08;26.92;;;;;;;2.58;100.00;101605.44;5090173;28;20037;-70
2022/12/05 03:30:20;;;;;;;42.58;26.00;;;;;;;2.56;100.00;101598.41;5088876;28;20051;-71
2022/12/05 03:33:28;;;;;;;44.47;26.83;;;;;;;2.58;100.00;101601.91;5083258;28;20036;-71
2022/12/05 03:36:18;;;;;;;42.97;26.65;;;;;;;2.58;100.00;101599.25;5065068;28;20037;-70
2022/12/05 03:39:12;;;;;;;48.50;26.98;;;;;;;2.61;100.00;101596.53;5087656;28;20039;-70
2022/12/05 03:41:42;;;;;;;41.60;24.45;;;;;;;2.60;100.00;101605.38;5079149;28;20029;-70
2022/12/05 03:44:17;;;;;;;46.10;25.63;;;;;;;2.60;100.00;101600.06;5090426;28;20036;-70
2022/12/05 03:46:51;;;;;;;44.17;25.83;;;;;;;2.62;100.00;101600.88;5077764;28;20086;-70
2022/12/05 03:49:31;;;;;;;45.28;27.38;;;;;;;2.62;100.00;101599.13;5083931;28;20391;-70
2022/12/05 03:52:05;;;;;;;42.97;24.92;;;;;;;2.64;100.00;101600.88;5089753;28;20095;-71
2022/12/05 03:54:33;;;;;;;44.80;26.30;;;;;;;2.61;100.00;101602.69;5090963;28;20020;-70
2022/12/05 03:57:04;;;;;;;47.08;26.55;;;;;;;2.61;100.00;101601.81;5079862;28;20518;-71
2022/12/05 03:59:51;;;;;;;41.92;26.25;;;;;;;2.59;100.00;101601.88;5089858;28;20032;-69
2022/12/05 04:02:33;;;;;;;49.20;27.58;;;;;;;2.60;100.00;101613.34;5088918;28;20029;-70
2022/12/05 04:05:06;;;;;;;43.00;26.90;;;;;;;2.58;100.00;101599.25;5078599;28;20162;-70
2022/12/05 04:07:36;;;;;;;50.20;25.85;;;;;;;2.57;100.00;101603.69;5085047;28;20035;-70
2022/12/05 04:10:07;;;;;;;40.97;25.00;;;;;;;2.56;100.00;101609.03;5090236;28;20539;-70
2022/12/05 04:12:35;;;;;;;44.03;24.55;;;;;;;2.56;100.00;101611.69;5089898;28;20052;-70
2022/12/05 04:15:13;;;;;;;44.80;25.85;;;;;;;2.56;100.00;101601.97;5088794;28;20024;-71
2022/12/05 04:17:45;;;;;;;44.80;26.02;;;;;;;2.57;100.00;101608.97;5089176;28;20012;-70
2022/12/05 04:23:05;;;;;;;43.55;25.23;;;;;;;2.56;100.00;101617.00;5077679;28;20039;-71
2022/12/05 04:25:46;;;;;;;43.33;26.30;;;;;;;2.55;100.00;101609.97;5086371;28;20025;-71
2022/12/05 04:28:35;;;;;;;41.28;25.17;;;;;;;2.57;100.00;101611.63;5088718;28;20063;-70
2022/12/05 04:31:05;;;;;;;42.55;23.45;;;;;;;2.58;100.00;101617.84;5089261;28;20024;-70
2022/12/05 04:33:37;;;;;;;44.88;26.55;;;;;;;2.58;100.00;101621.34;5089103;28;20033;-70
2022/12/05 04:36:10;;;;;;;42.80;25.73;;;;;;;2.57;100.00;101614.28;5093067;28;20042;-70
2022/12/05 04:38:54;;;;;;;43.85;24.80;;;;;;;2.61;100.00;101617.75;5095477;28;20025;-71
2022/12/05 04:41:30;;;;;;;37.42;23.42;;;;;;;2.62;100.00;101615.06;5084126;28;20024;-70
2022/12/05 04:44:00;;;;;;;45.05;26.33;;;;;;;2.64;100.00;101625.63;5086491;28;20036;-70
2022/12/05 04:46:26;;;;;;;40.83;23.77;;;;;;;2.65;100.00;101618.53;5091694;28;20047;-71
2022/12/05 04:48:55;;;;;;;39.47;23.60;;;;;;;2.61;100.00;101625.72;5092054;28;20029;-70
2022/12/05 04:51:24;;;;;;;42.58;25.60;;;;;;;2.61;100.00;101621.25;5094151;28;20044;-70
2022/12/05 04:53:55;;;;;;;43.33;26.60;;;;;;;2.60;100.00;101627.47;5093866;28;20462;-70
2022/12/05 04:56:23;;;;;;;40.15;24.58;;;;;;;2.62;100.00;101628.31;5094046;28;20021;-70
2022/12/05 04:58:49;;;;;;;44.42;25.15;;;;;;;2.64;100.00;101622.97;5093533;28;20031;-70
2022/12/05 05:01:21;;;;;;;45.13;24.77;;;;;;;2.65;100.00;101619.41;5084939;28;20025;-70
2022/12/05 05:03:54;;;;;;;44.40;26.50;;;;;;;2.63;100.00;101618.56;5086957;28;20039;-70
2022/12/05 05:06:19;;;;;;;41.40;25.00;;;;;;;2.64;100.00;101615.00;5093087;28;20092;-70
2022/12/05 05:08:51;;;;;;;41.88;24.25;;;;;;;2.64;100.00;101615.00;5091777;28;20028;-70
2022/12/05 05:11:20;;;;;;;42.50;25.77;;;;;;;2.65;100.00;101622.06;5086047;28;20033;-70
2022/12/05 05:13:47;;;;;;;41.25;24.30;;;;;;;2.65;100.00;101621.19;5093472;28;20045;-70
2022/12/05 05:16:17;;;;;;;39.47;22.85;;;;;;;2.65;100.00;101631.78;5092771;28;20050;-71
2022/12/05 05:18:44;;;;;;;42.28;25.83;;;;;;;2.65;100.00;101626.47;5092245;28;20031;-70
2022/12/05 05:21:19;;;;;;;43.88;25.58;;;;;;;2.66;100.00;101638.84;5092130;28;20024;-70
2022/12/05 05:23:45;;;;;;;42.50;24.27;;;;;;;2.68;100.00;101637.91;5093339;28;20376;-71
2022/12/05 05:26:10;;;;;;;46.00;24.42;;;;;;;2.69;100.00;101639.63;5092395;28;20015;-70
2022/12/05 05:28:35;;;;;;;36.90;22.90;;;;;;;2.73;100.00;101641.28;5085881;28;20021;-70
2022/12/05 05:31:05;;;;;;;42.35;24.10;;;;;;;2.73;100.00;101635.97;5088273;28;20021;-70
2022/12/05 05:33:31;;;;;;;41.63;25.52;;;;;;;2.74;100.00;101636.88;5092053;28;20058;-70
2022/12/05 05:35:56;;;;;;;41.80;24.75;;;;;;;2.72;100.00;101636.88;5089478;28;20055;-71
2022/12/05 05:38:22;;;;;;;41.72;25.25;;;;;;;2.72;100.00;101630.72;5085425;28;20032;-70
2022/12/05 05:40:47;;;;;;;45.15;25.67;;;;;;;2.71;100.00;101627.19;5091084;28;20561;-70
2022/12/05 05:43:12;;;;;;;39.13;23.95;;;;;;;2.72;100.00;101628.06;5089109;28;20039;-70
2022/12/05 05:45:37;;;;;;;40.58;22.00;;;;;;;2.72;100.00;101630.72;5091761;28;20054;-70
2022/12/05 05:48:03;;;;;;;38.05;23.13;;;;;;;2.72;100.00;101633.38;5091637;28;20039;-71
2022/12/05 05:50:28;;;;;;;37.53;22.55;;;;;;;2.74;100.00;101628.91;5090803;28;20041;-70
2022/12/05 05:52:54;;;;;;;39.15;22.67;;;;;;;2.75;100.00;101634.16;5091686;28;20025;-71
2022/12/05 05:55:19;;;;;;;37.20;22.58;;;;;;;2.77;100.00;101639.44;5088731;28;20028;-71
2022/12/05 05:57:45;;;;;;;36.03;20.67;;;;;;;2.78;100.00;101641.16;5090002;28;20028;-71
2022/12/05 06:00:11;;;;;;;40.22;22.95;;;;;;;2.78;100.00;101651.78;5081442;28;20025;-70
2022/12/05 06:02:36;;;;;;;38.72;22.48;;;;;;;2.80;100.00;101642.00;5089567;28;20032;-70
2022/12/05 06:05:03;;;;;;;35.15;20.17;;;;;;;2.82;100.00;101645.47;5091857;28;20449;-71
2022/12/05 06:07:28;;;;;;;38.63;21.05;;;;;;;2.82;100.00;101639.28;5088581;28;20112;-71
2022/12/05 06:09:54;;;;;;;40.78;23.92;;;;;;;2.83;100.00;101641.03;5091203;28;20024;-71
2022/12/05 06:12:19;;;;;;;40.45;21.88;;;;;;;2.83;100.00;101652.53;5090331;28;20021;-71
2022/12/05 06:14:47;;;;;;;38.83;21.77;;;;;;;2.85;100.00;101649.81;5090318;28;20059;-71
2022/12/05 06:17:13;;;;;;;40.80;22.05;;;;;;;2.86;100.00;101646.25;5089086;28;20479;-71
2022/12/05 06:19:38;;;;;;;41.22;23.38;;;;;;;2.89;100.00;101649.69;5085686;28;20019;-70
2022/12/05 06:22:03;;;;;;;36.15;21.75;;;;;;;2.91;100.00;101654.97;5081960;28;20029;-71
2022/12/05 06:24:28;;;;;;;38.92;22.05;;;;;;;2.90;100.00;101647.91;5089070;28;20052;-71
2022/12/05 06:26:54;;;;;;;38.88;23.23;;;;;;;2.87;100.00;101654.19;5084783;28;20032;-70
2022/12/05 06:29:19;;;;;;;40.55;23.27;;;;;;;2.87;100.00;101654.19;5087637;28;20047;-71
2022/12/05 06:31:44;;;;;;;38.65;23.27;;;;;;;2.87;100.00;101655.94;5089736;28;20430;-70
2022/12/05 06:34:09;;;;;;;37.63;20.52;;;;;;;2.87;100.00;101656.84;5086312;28;20142;-70
2022/12/05 06:36:35;;;;;;;36.08;21.58;;;;;;;2.86;100.00;101646.25;5089080;28;20070;-70
2022/12/05 06:39:00;;;;;;;40.42;22.35;;;;;;;2.87;100.00;101659.50;5084744;28;20028;-71
2022/12/05 06:41:26;;;;;;;40.22;22.48;;;;;;;2.87;100.00;101655.94;5083883;28;20028;-70
2022/12/05 06:43:56;;;;;;;35.00;20.63;;;;;;;2.85;100.00;101655.13;5088333;28;20024;-71
2022/12/05 06:46:22;;;;;;;35.95;21.25;;;;;;;2.85;100.00;101650.69;5082744;28;20048;-70
2022/12/05 06:48:48;;;;;;;41.03;21.63;;;;;;;2.85;100.00;101665.75;5085707;28;20020;-71
2022/12/05 06:51:15;;;;;;;36.83;21.73;;;;;;;2.84;100.00;101654.28;5085733;28;20072;-71
2022/12/05 06:53:41;;;;;;;39.63;23.13;;;;;;;2.85;100.00;101656.00;5087587;28;20032;-71
2022/12/05 06:56:10;;;;;;;34.20;20.15;;;;;;;2.84;100.00;101662.25;5088112;28;20050;-71
2022/12/05 06:58:35;;;;;;;38.22;21.80;;;;;;;2.84;100.00;101656.94;5086847;28;20021;-70
2022/12/05 07:03:47;;;;;;;38.63;22.88;;;;;;;2.86;100.00;101672.81;5085410;28;20056;-71
2022/12/05 07:06:14;;;;;;;33.55;20.00;;;;;;;2.86;100.00;101668.38;5083652;28;20110;-71
2022/12/05 07:08:40;;;;;;;37.13;20.08;;;;;;;2.86;100.00;101678.13;5072175;28;20017;-71
2022/12/05 07:11:06;;;;;;;38.55;21.08;;;;;;;2.88;100.00;101673.63;5072205;28;20028;-71
2022/12/05 07:13:32;;;;;;;34.70;19.38;;;;;;;2.87;100.00;101677.19;5082630;28;20055;-70
2022/12/05 07:15:57;;;;;;;37.88;21.45;;;;;;;2.87;100.00;101679.84;5084259;28;20039;-71
2022/12/05 07:18:23;;;;;;;34.97;20.15;;;;;;;2.89;100.00;101688.66;5082314;28;20033;-70
2022/12/05 07:20:58;;;;;;;35.83;21.98;;;;;;;2.90;100.00;101690.38;5082759;28;20024;-71
2022/12/05 07:23:24;;;;;;;35.25;20.80;;;;;;;2.89;100.00;101693.97;5083996;28;20036;-71
2022/12/05 07:25:49;;;;;;;32.55;18.95;;;;;;;2.90;100.00;101695.69;5085579;28;20087;-71
2022/12/05 07:28:14;;;;;;;36.25;20.35;;;;;;;2.91;100.00;101697.44;5075921;28;20040;-71
2022/12/05 07:30:39;;;;;;;34.90;19.95;;;;;;;2.92;100.00;101704.50;5080881;28;20493;-70
2022/12/05 07:33:05;;;;;;;32.95;18.90;;;;;;;2.92;100.00;101700.06;5075210;28;20032;-71
2022/12/05 07:35:30;;;;;;;34.72;19.13;;;;;;;2.93;100.00;101700.94;5077294;28;20025;-71
2022/12/05 07:37:55;;;;;;;37.33;21.30;;;;;;;2.92;100.00;101705.34;5078055;28;20028;-71
2022/12/05 07:40:20;;;;;;;32.90;17.52;;;;;;;2.94;100.00;101705.31;5071609;28;20021;-72
2022/12/05 07:42:49;;;;;;;34.42;18.55;;;;;;;2.97;100.00;101707.88;5071369;28;20044;-71
2022/12/05 07:45:15;;;;;;;35.90;20.55;;;;;;;2.97;100.00;101706.13;5075722;28;20031;-71
2022/12/05 07:47:40;;;;;;;34.95;20.00;;;;;;;2.99;100.00;101700.75;5073122;28;20048;-71
2022/12/05 07:50:06;;;;;;;39.00;19.42;;;;;;;3.02;100.00;101702.47;5080385;28;20488;-71
2022/12/05 07:52:31;;;;;;;33.45;18.60;;;;;;;3.03;100.00;101707.75;5081088;28;20036;-71
2022/12/05 07:54:57;;;;;;;35.60;19.80;;;;;;;3.04;100.00;101708.59;5081173;28;20430;-71
2022/12/05 07:57:22;;;;;;;37.72;18.55;;;;;;;3.05;100.00;101713.00;5080408;28;20025;-71
2022/12/05 07:59:47;;;;;;;32.53;19.13;;;;;;;3.05;100.00;101716.53;5080535;28;20464;-71
2022/12/05 08:02:13;;;;;;;37.03;19.75;;;;;;;3.02;100.00;101716.59;5073044;28;20040;-71
2022/12/05 08:04:38;;;;;;;32.97;18.23;;;;;;;3.03;100.00;101717.47;5074212;28;20024;-71
2022/12/05 08:07:03;;;;;;;34.97;19.30;;;;;;;3.03;100.00;101720.13;5076876;28;20016;-71
2022/12/05 08:09:29;;;;;;;36.50;19.90;;;;;;;3.03;100.00;101720.13;5074323;28;20029;-71
2022/12/05 08:11:54;;;;;;;33.13;18.88;;;;;;;3.04;100.00;101724.53;5078654;28;20112;-71
2022/12/05 08:14:19;;;;;;;37.70;18.98;;;;;;;3.05;100.00;101726.28;5076077;28;20093;-71
2022/12/05 08:16:44;;;;;;;34.17;19.08;;;;;;;3.06;100.00;101735.97;5076844;28;20059;-71
2022/12/05 08:19:15;;;;;;;33.83;17.35;;;;;;;3.07;100.00;101732.41;5075425;28;20028;-71
2022/12/05 08:21:41;;;;;;;33.72;18.48;;;;;;;3.08;100.00;101742.13;5068193;28;20521;-71
2022/12/05 08:24:07;;;;;;;36.08;19.98;;;;;;;3.08;100.00;101735.03;5062124;28;20021;-71
2022/12/05 08:26:34;;;;;;;33.55;18.35;;;;;;;3.09;100.00;101743.84;5057897;28;20032;-72
2022/12/05 08:29:08;;;;;;;37.65;19.27;;;;;;;3.10;100.00;101743.81;5060952;28;20052;-72
2022/12/05 08:31:37;;;;;;;34.42;18.70;;;;;;;3.10;100.00;101746.47;5062576;28;20090;-72
2022/12/05 08:34:03;;;;;;;36.88;19.45;;;;;;;3.13;100.00;101750.81;5059746;28;20048;-72
2022/12/05 08:36:29;;;;;;;33.75;19.45;;;;;;;3.13;100.00;101753.47;5061962;28;20093;-71
2022/12/05 08:39:00;;;;;;;33.83;20.27;;;;;;;3.14;100.00;101752.56;5053833;28;20025;-72
2022/12/05 08:41:28;;;;;;;37.05;20.70;;;;;;;3.13;100.00;101757.03;5053566;28;20021;-72
2022/12/05 08:43:55;;;;;;;36.75;20.00;;;;;;;3.12;100.00;101755.28;5060084;28;20067;-72
2022/12/05 08:46:21;;;;;;;35.03;20.05;;;;;;;3.14;100.00;101749.91;5060018;28;20044;-72
2022/12/05 08:48:46;;;;;;;33.35;18.90;;;;;;;3.15;100.00;101751.66;5054847;28;20088;-72
2022/12/05 08:51:12;;;;;;;36.70;18.73;;;;;;;3.15;100.00;101755.19;5052888;28;20106;-72
2022/12/05 08:53:39;;;;;;;37.03;19.58;;;;;;;3.15;100.00;101754.31;5057533;28;20040;-72
2022/12/05 08:56:06;;;;;;;35.17;19.45;;;;;;;3.17;100.00;101756.94;5072738;28;20080;-72
2022/12/05 08:58:32;;;;;;;33.55;18.95;;;;;;;3.17;100.00;101756.94;5054265;28;20040;-72
2022/12/05 09:01:08;;;;;;;35.60;20.63;;;;;;;3.17;100.00;101757.81;5063188;28;20029;-72
2022/12/05 09:03:34;;;;;;;34.88;19.15;;;;;;;3.20;100.00;101767.47;5063264;28;20039;-72
2022/12/05 09:06:06;;;;;;;35.58;20.40;;;;;;;3.21;100.00;101767.44;5060950;28;20036;-72
2022/12/05 09:08:31;;;;;;;35.70;19.60;;;;;;;3.22;100.00;101770.94;5061037;28;20092;-72
2022/12/05 09:10:56;;;;;;;35.85;20.55;;;;;;;3.21;100.00;101770.09;5061078;28;20429;-72
2022/12/05 09:13:21;;;;;;;34.90;20.27;;;;;;;3.21;100.00;101766.56;5059501;28;20036;-71
2022/12/05 09:15:48;;;;;;;39.15;20.60;;;;;;;3.21;100.00;101770.09;5070022;28;20041;-72
2022/12/05 09:18:14;;;;;;;33.75;19.58;;;;;;;3.22;100.00;101774.50;5059219;28;20069;-71
2022/12/05 09:20:39;;;;;;;31.92;19.42;;;;;;;3.22;100.00;101773.59;5057487;28;20488;-72
2022/12/05 09:23:04;;;;;;;33.67;19.63;;;;;;;3.25;100.00;101773.50;5058502;28;20021;-72
2022/12/05 09:25:29;;;;;;;31.50;19.02;;;;;;;3.26;100.00;101780.59;5061870;28;20037;-72
2022/12/05 09:27:55;;;;;;;36.65;18.88;;;;;;;3.27;100.00;101777.88;5073401;28;20021;-73
2022/12/05 09:30:20;;;;;;;31.65;18.50;;;;;;;3.28;100.00;101784.94;5055196;28;20021;-72
2022/12/05 09:32:45;;;;;;;37.50;19.63;;;;;;;3.30;100.00;101787.56;5058725;28;20111;-72
2022/12/05 09:35:11;;;;;;;35.90;18.48;;;;;;;3.32;100.00;101793.69;5055044;28;20103;-72
2022/12/05 09:37:36;;;;;;;35.53;19.50;;;;;;;3.35;100.00;101798.06;5057274;28;20021;-72
2022/12/05 09:40:02;;;;;;;34.10;18.55;;;;;;;3.36;100.00;101800.66;5058001;28;20052;-72
2022/12/05 09:42:37;;;;;;;33.75;17.73;;;;;;;3.37;100.00;101797.09;5071310;28;20081;-72
2022/12/05 09:45:22;;;;;;;34.63;19.27;;;;;;;3.36;100.00;101795.34;5068130;28;20088;-72
2022/12/05 09:47:51;;;;;;;32.13;18.23;;;;;;;3.37;100.00;101799.75;5058205;28;20028;-72
2022/12/05 09:50:57;;;;;;;36.80;18.27;;;;;;;3.38;100.00;101804.13;5060280;28;20035;-72
2022/12/05 09:53:26;;;;;;;33.90;18.15;;;;;;;3.39;100.00;101799.72;5025265;28;20044;-72
2022/12/05 09:55:56;;;;;;;35.40;19.02;;;;;;;3.39;100.00;101805.88;5051861;28;20033;-72
2022/12/05 09:58:27;;;;;;;29.77;18.30;;;;;;;3.41;100.00;101800.53;5069293;28;20024;-72
2022/12/05 10:01:17;;;;;;;32.58;18.25;;;;;;;3.44;100.00;101801.34;5070318;28;20033;-72
2022/12/05 10:04:02;;;;;;;32.13;18.08;;;;;;;3.46;100.00;101796.84;5064878;28;20032;-72
2022/12/05 10:06:40;;;;;;;34.63;18.65;;;;;;;3.45;100.00;101805.72;5052304;28;20127;-72
2022/12/05 10:09:24;;;;;;;32.40;16.92;;;;;;;3.48;100.00;101795.03;5069690;28;20028;-72
2022/12/05 10:12:14;;;;;;;27.42;13.82;;;;;;;3.52;100.00;101800.25;5072595;28;20248;-72
2022/12/05 10:14:39;;;;;;;;;;;;;;;3.58;100.00;101800.06;5059311;28;20440;-72
2022/12/05 10:17:19;;;;;;;30.28;15.00;;;;;;;3.52;100.00;101802.91;5052822;28;19909;-72
2022/12/05 10:19:47;;;;;;;30.48;14.98;;;;;;;3.49;100.00;101804.72;5056566;28;20128;-72
2022/12/05 10:22:18;;;;;;;29.00;14.73;;;;;;;3.49;100.00;101794.09;5062104;28;20031;-72
2022/12/05 10:24:50;;;;;;;28.38;14.95;;;;;;;3.49;100.00;101791.44;5059734;28;20028;-72
2022/12/05 10:27:23;;;;;;;31.33;15.57;;;;;;;3.50;100.00;101792.31;5065388;28;20028;-72
2022/12/05 10:30:16;;;;;;;28.38;14.88;;;;;;;3.54;100.00;101793.09;5065566;28;20126;-72
2022/12/05 10:32:58;;;;;;;27.75;13.48;;;;;;;3.50;100.00;101797.63;5052842;28;20064;-72
2022/12/05 10:35:53;;;;;;;26.70;13.75;;;;;;;3.51;100.00;101804.69;5070105;28;20021;-72
2022/12/05 10:38:26;;;;;;;28.63;14.55;;;;;;;3.52;100.00;101800.25;5052971;28;20048;-72
2022/12/05 10:40:57;;;;;;;27.38;12.75;;;;;;;3.53;100.00;101801.97;5061428;28;20052;-72
2022/12/05 10:43:27;;;;;;;27.35;13.52;;;;;;;3.56;100.00;101797.44;5062309;28;20028;-72
2022/12/05 10:45:52;;;;;;;27.20;13.35;;;;;;;3.56;100.00;101799.22;5057329;28;20499;-72
2022/12/05 10:48:20;;;;;;;27.38;12.95;;;;;;;3.56;100.00;101793.91;5065137;28;20021;-72
2022/12/05 10:50:51;;;;;;;27.50;12.70;;;;;;;3.56;100.00;101804.53;5068764;28;20136;-72
2022/12/05 10:53:31;;;;;;;27.65;13.43;;;;;;;3.55;100.00;101806.34;5056399;28;20077;-72
2022/12/05 10:55:56;;;;;;;;;;;;;;;3.60;100.00;101804.44;5054648;28;20108;-72
2022/12/05 10:58:28;;;;;;;23.95;12.18;;;;;;;3.55;100.00;101801.03;5063379;28;20327;-72
2022/12/05 11:01:14;;;;;;;25.95;11.50;;;;;;;3.57;100.00;101804.50;5069512;28;20033;-72
2022/12/05 11:03:42;;;;;;;25.38;12.38;;;;;;;3.55;100.00;101802.81;5071710;28;20100;-72
2022/12/05 11:06:26;;;;;;;27.88;13.30;;;;;;;3.57;100.00;101795.66;5067702;28;20032;-72
2022/12/05 11:08:53;;;;;;;27.40;13.63;;;;;;;3.57;100.00;101793.84;5052821;28;20067;-72
2022/12/05 11:11:24;;;;;;;27.25;12.48;;;;;;;3.59;100.00;101791.19;5062885;28;20039;-72
2022/12/05 11:13:59;;;;;;;26.23;13.07;;;;;;;3.60;100.00;101795.56;5061891;28;20678;-72
2022/12/05 11:16:35;;;;;;;26.15;11.98;;;;;;;3.61;100.00;101794.66;5054160;28;20033;-72
2022/12/05 11:19:36;;;;;;;23.55;11.75;;;;;;;3.63;100.00;101785.72;5052663;28;20065;-72
2022/12/05 11:22:04;;;;;;;26.30;13.55;;;;;;;3.63;100.00;101780.41;4990318;28;20034;-72
2022/12/05 11:24:32;;;;;;;25.35;11.95;;;;;;;3.65;100.00;101786.53;4990609;28;20653;-72
2022/12/05 11:27:09;;;;;;;24.42;12.20;;;;;;;3.65;100.00;101778.56;4987031;28;20085;-73
2022/12/05 11:29:36;;;;;;;26.55;10.65;;;;;;;3.67;100.00;101790.03;4988981;28;20065;-72
2022/12/05 11:32:04;;;;;;;24.60;12.43;;;;;;;3.70;100.00;101781.09;4990887;28;20084;-73